Terminal Aerodrome Forecast
Issued by NWS

Home | Current Version | Previous Version | Text Only | Print | Product List | Glossary Off
Versions: 1 2 3 4 5 6 7 8 9 10 11 12 13 14 15 16 17 18

000
FTUS42 KMHX 271500 AAC
TAFISO
TAF AMD
KISO 271517Z 2715/2812 22005KT P6SM BKN250
      TEMPO 2716/2717 VRB20G40KT 1SM +TSRA BKN025CB OVC040
     FM271900 23010G15KT P6SM VCTS BKN040CB BKN250
     FM272300 24008KT P6SM BKN040
     FM280100 20010KT P6SM BKN100
      AMD LTD TO CLD VIS AND WIND=

USA.gov is the U.S. government's official web portal to all federal, state and local government web resources and services.